Terminal Aerodrome Forecast
Issued by NWS Twin Cities, MN

Home | Current Version | Previous Version | Graphics & Text | Print | Product List | Glossary On
Versions: 1 2 3 4 5 6 7 8 9 10 11 12 13 14 15 16 17 18 19 20 21 22 23 24 25 26 27 28
352
FTUS43 KMPX 232325
TAFMSP
TAF
KMSP 232325Z 2400/2506 14012KT P6SM FEW008 SCT025 BKN035
     FM240500 17011KT P6SM VCTS BKN050CB
     FM240800 23005KT P6SM SCT250
     FM241700 29010G17KT P6SM FEW050 SCT250
     FM250000 29006KT P6SM FEW250=

USA.gov is the U.S. government's official web portal to all federal, state and local government web resources and services.